sensor_id;sensor_type;location;lat;lon;timestamp;P1;durP1;ratioP1;P2;durP2;ratioP2
76814;SDS011;65768;49.906;19.384;2023-07-28T00:01:06;3.40;;;1.50;;
76814;SDS011;65768;49.906;19.384;2023-07-28T00:03:36;2.90;;;1.50;;
76814;SDS011;65768;49.906;19.384;2023-07-28T00:06:05;4.70;;;1.40;;
76814;SDS011;65768;49.906;19.384;2023-07-28T00:08:34;2.30;;;1.20;;
76814;SDS011;65768;49.906;19.384;2023-07-28T00:11:03;2.60;;;1.50;;
76814;SDS011;65768;49.906;19.384;2023-07-28T00:13:37;2.60;;;1.20;;
76814;SDS011;65768;49.906;19.384;2023-07-28T00:16:07;2.20;;;1.30;;
76814;SDS011;65768;49.906;19.384;2023-07-28T00:18:37;2.10;;;1.30;;
76814;SDS011;65768;49.906;19.384;2023-07-28T00:21:06;2.40;;;1.30;;
76814;SDS011;65768;49.906;19.384;2023-07-28T00:23:35;2.70;;;1.30;;
76814;SDS011;65768;49.906;19.384;2023-07-28T00:26:04;2.10;;;1.20;;
76814;SDS011;65768;49.906;19.384;2023-07-28T00:28:34;2.70;;;1.10;;
76814;SDS011;65768;49.906;19.384;2023-07-28T00:31:04;2.60;;;1.40;;
76814;SDS011;65768;49.906;19.384;2023-07-28T00:33:32;3.30;;;1.40;;
76814;SDS011;65768;49.906;19.384;2023-07-28T00:36:01;2.10;;;1.10;;
76814;SDS011;65768;49.906;19.384;2023-07-28T00:38:29;2.80;;;1.10;;
76814;SDS011;65768;49.906;19.384;2023-07-28T00:40:58;3.20;;;1.30;;
76814;SDS011;65768;49.906;19.384;2023-07-28T00:43:28;2.90;;;1.30;;
76814;SDS011;65768;49.906;19.384;2023-07-28T00:45:57;2.50;;;1.00;;
76814;SDS011;65768;49.906;19.384;2023-07-28T00:48:27;2.40;;;1.20;;
76814;SDS011;65768;49.906;19.384;2023-07-28T00:50:55;2.00;;;1.50;;
76814;SDS011;65768;49.906;19.384;2023-07-28T00:53:29;2.80;;;1.20;;
76814;SDS011;65768;49.906;19.384;2023-07-28T00:56:02;3.50;;;1.40;;
76814;SDS011;65768;49.906;19.384;2023-07-28T00:58:32;4.50;;;1.30;;
76814;SDS011;65768;49.906;19.384;2023-07-28T01:01:02;3.10;;;1.40;;
76814;SDS011;65768;49.906;19.384;2023-07-28T01:03:31;3.60;;;1.30;;
76814;SDS011;65768;49.906;19.384;2023-07-28T01:09:24;2.30;;;1.30;;
76814;SDS011;65768;49.906;19.384;2023-07-28T01:12:05;3.00;;;1.30;;
76814;SDS011;65768;49.906;19.384;2023-07-28T01:14:37;1.70;;;1.20;;
76814;SDS011;65768;49.906;19.384;2023-07-28T01:17:05;2.10;;;1.20;;
76814;SDS011;65768;49.906;19.384;2023-07-28T01:19:35;2.00;;;1.20;;
76814;SDS011;65768;49.906;19.384;2023-07-28T01:22:13;3.00;;;1.40;;
76814;SDS011;65768;49.906;19.384;2023-07-28T01:24:51;3.10;;;1.30;;
76814;SDS011;65768;49.906;19.384;2023-07-28T01:27:34;1.70;;;1.10;;
76814;SDS011;65768;49.906;19.384;2023-07-28T01:30:04;2.60;;;1.20;;
76814;SDS011;65768;49.906;19.384;2023-07-28T01:32:35;2.90;;;1.50;;
76814;SDS011;65768;49.906;19.384;2023-07-28T01:35:04;3.00;;;1.30;;
76814;SDS011;65768;49.906;19.384;2023-07-28T01:37:34;2.20;;;1.20;;
76814;SDS011;65768;49.906;19.384;2023-07-28T01:40:03;2.20;;;1.20;;
76814;SDS011;65768;49.906;19.384;2023-07-28T01:42:33;3.90;;;1.20;;
76814;SDS011;65768;49.906;19.384;2023-07-28T01:45:03;3.30;;;1.40;;
76814;SDS011;65768;49.906;19.384;2023-07-28T01:47:31;3.80;;;1.30;;
76814;SDS011;65768;49.906;19.384;2023-07-28T01:50:00;2.70;;;1.20;;
76814;SDS011;65768;49.906;19.384;2023-07-28T01:52:29;2.70;;;1.40;;
76814;SDS011;65768;49.906;19.384;2023-07-28T01:54:58;3.20;;;1.40;;
76814;SDS011;65768;49.906;19.384;2023-07-28T01:57:27;2.60;;;1.60;;
76814;SDS011;65768;49.906;19.384;2023-07-28T01:59:56;2.80;;;1.70;;
76814;SDS011;65768;49.906;19.384;2023-07-28T02:02:26;3.70;;;1.20;;
76814;SDS011;65768;49.906;19.384;2023-07-28T02:04:55;2.50;;;1.40;;
76814;SDS011;65768;49.906;19.384;2023-07-28T02:07:24;2.50;;;1.30;;
76814;SDS011;65768;49.906;19.384;2023-07-28T02:09:53;4.30;;;1.40;;
76814;SDS011;65768;49.906;19.384;2023-07-28T02:12:21;2.70;;;1.30;;
76814;SDS011;65768;49.906;19.384;2023-07-28T02:14:50;1.80;;;1.00;;
76814;SDS011;65768;49.906;19.384;2023-07-28T02:17:19;4.40;;;1.80;;
76814;SDS011;65768;49.906;19.384;2023-07-28T02:19:48;2.40;;;1.20;;
76814;SDS011;65768;49.906;19.384;2023-07-28T02:22:16;2.90;;;1.10;;
76814;SDS011;65768;49.906;19.384;2023-07-28T02:24:45;2.60;;;1.30;;
76814;SDS011;65768;49.906;19.384;2023-07-28T02:27:13;3.40;;;1.30;;
76814;SDS011;65768;49.906;19.384;2023-07-28T02:29:42;2.70;;;1.30;;
76814;SDS011;65768;49.906;19.384;2023-07-28T02:32:11;1.40;;;0.90;;
76814;SDS011;65768;49.906;19.384;2023-07-28T02:34:40;2.00;;;1.10;;
76814;SDS011;65768;49.906;19.384;2023-07-28T02:37:08;2.30;;;1.30;;
76814;SDS011;65768;49.906;19.384;2023-07-28T02:39:37;2.50;;;1.10;;
76814;SDS011;65768;49.906;19.384;2023-07-28T02:42:05;2.10;;;1.00;;
76814;SDS011;65768;49.906;19.384;2023-07-28T02:44:34;3.10;;;1.60;;
76814;SDS011;65768;49.906;19.384;2023-07-28T02:47:03;2.10;;;1.20;;
76814;SDS011;65768;49.906;19.384;2023-07-28T02:49:36;2.70;;;1.30;;
76814;SDS011;65768;49.906;19.384;2023-07-28T02:52:05;2.20;;;1.30;;
76814;SDS011;65768;49.906;19.384;2023-07-28T02:54:34;4.00;;;1.30;;
76814;SDS011;65768;49.906;19.384;2023-07-28T02:57:04;2.10;;;1.10;;
76814;SDS011;65768;49.906;19.384;2023-07-28T02:59:32;1.90;;;1.00;;
76814;SDS011;65768;49.906;19.384;2023-07-28T03:02:01;2.40;;;1.30;;
76814;SDS011;65768;49.906;19.384;2023-07-28T03:04:34;3.00;;;1.30;;
76814;SDS011;65768;49.906;19.384;2023-07-28T03:07:03;2.10;;;1.00;;
76814;SDS011;65768;49.906;19.384;2023-07-28T03:09:33;3.10;;;1.30;;
76814;SDS011;65768;49.906;19.384;2023-07-28T03:12:03;4.60;;;1.30;;
76814;SDS011;65768;49.906;19.384;2023-07-28T03:14:34;3.20;;;1.20;;
76814;SDS011;65768;49.906;19.384;2023-07-28T03:17:03;2.70;;;1.10;;
76814;SDS011;65768;49.906;19.384;2023-07-28T03:19:33;1.40;;;1.00;;
76814;SDS011;65768;49.906;19.384;2023-07-28T03:22:03;2.40;;;1.00;;
76814;SDS011;65768;49.906;19.384;2023-07-28T03:24:31;2.70;;;1.20;;
76814;SDS011;65768;49.906;19.384;2023-07-28T03:27:01;2.20;;;1.20;;
76814;SDS011;65768;49.906;19.384;2023-07-28T03:29:33;3.90;;;1.60;;
76814;SDS011;65768;49.906;19.384;2023-07-28T03:32:05;5.00;;;1.30;;
76814;SDS011;65768;49.906;19.384;2023-07-28T03:34:33;2.10;;;1.00;;
76814;SDS011;65768;49.906;19.384;2023-07-28T03:37:01;2.70;;;1.30;;
76814;SDS011;65768;49.906;19.384;2023-07-28T03:39:31;2.20;;;1.00;;
76814;SDS011;65768;49.906;19.384;2023-07-28T03:42:01;2.40;;;0.90;;
76814;SDS011;65768;49.906;19.384;2023-07-28T03:44:31;2.00;;;1.00;;
76814;SDS011;65768;49.906;19.384;2023-07-28T03:47:00;3.40;;;1.40;;
76814;SDS011;65768;49.906;19.384;2023-07-28T03:49:30;2.90;;;1.20;;
76814;SDS011;65768;49.906;19.384;2023-07-28T03:51:58;3.10;;;1.30;;
76814;SDS011;65768;49.906;19.384;2023-07-28T03:54:27;3.40;;;1.20;;
76814;SDS011;65768;49.906;19.384;2023-07-28T03:56:56;2.50;;;1.30;;
76814;SDS011;65768;49.906;19.384;2023-07-28T03:59:25;3.00;;;1.40;;
76814;SDS011;65768;49.906;19.384;2023-07-28T04:01:55;5.00;;;2.00;;
76814;SDS011;65768;49.906;19.384;2023-07-28T04:06:56;2.90;;;1.20;;
76814;SDS011;65768;49.906;19.384;2023-07-28T04:09:26;2.20;;;1.30;;
76814;SDS011;65768;49.906;19.384;2023-07-28T04:11:58;3.20;;;1.50;;
76814;SDS011;65768;49.906;19.384;2023-07-28T04:14:27;2.80;;;1.40;;
76814;SDS011;65768;49.906;19.384;2023-07-28T04:16:55;2.70;;;1.40;;
76814;SDS011;65768;49.906;19.384;2023-07-28T04:19:25;3.40;;;1.60;;
76814;SDS011;65768;49.906;19.384;2023-07-28T04:21:56;4.70;;;2.30;;
76814;SDS011;65768;49.906;19.384;2023-07-28T04:24:25;3.20;;;1.60;;
76814;SDS011;65768;49.906;19.384;2023-07-28T04:26:54;2.80;;;1.30;;
76814;SDS011;65768;49.906;19.384;2023-07-28T04:29:22;2.90;;;1.10;;
76814;SDS011;65768;49.906;19.384;2023-07-28T04:31:51;3.00;;;1.50;;
76814;SDS011;65768;49.906;19.384;2023-07-28T04:34:21;3.20;;;1.50;;
76814;SDS011;65768;49.906;19.384;2023-07-28T04:36:50;3.60;;;1.50;;
76814;SDS011;65768;49.906;19.384;2023-07-28T04:39:19;3.60;;;1.70;;
76814;SDS011;65768;49.906;19.384;2023-07-28T04:41:48;2.60;;;1.50;;
76814;SDS011;65768;49.906;19.384;2023-07-28T04:44:17;3.20;;;1.30;;
76814;SDS011;65768;49.906;19.384;2023-07-28T04:46:47;3.60;;;1.20;;
76814;SDS011;65768;49.906;19.384;2023-07-28T04:49:16;2.60;;;1.60;;
76814;SDS011;65768;49.906;19.384;2023-07-28T04:51:45;2.50;;;1.30;;
76814;SDS011;65768;49.906;19.384;2023-07-28T04:54:14;3.80;;;1.40;;
76814;SDS011;65768;49.906;19.384;2023-07-28T04:56:44;3.90;;;1.50;;
76814;SDS011;65768;49.906;19.384;2023-07-28T04:59:15;2.50;;;1.10;;
76814;SDS011;65768;49.906;19.384;2023-07-28T05:01:44;2.50;;;1.50;;
76814;SDS011;65768;49.906;19.384;2023-07-28T05:04:13;1.80;;;1.10;;
76814;SDS011;65768;49.906;19.384;2023-07-28T05:06:42;2.90;;;1.50;;
76814;SDS011;65768;49.906;19.384;2023-07-28T05:09:11;3.60;;;1.20;;
76814;SDS011;65768;49.906;19.384;2023-07-28T05:11:40;3.60;;;1.40;;
76814;SDS011;65768;49.906;19.384;2023-07-28T05:14:09;2.60;;;1.40;;
76814;SDS011;65768;49.906;19.384;2023-07-28T05:16:38;2.70;;;1.10;;
76814;SDS011;65768;49.906;19.384;2023-07-28T05:19:08;2.20;;;1.10;;
76814;SDS011;65768;49.906;19.384;2023-07-28T05:21:37;2.20;;;1.10;;
76814;SDS011;65768;49.906;19.384;2023-07-28T05:24:06;4.20;;;1.60;;
76814;SDS011;65768;49.906;19.384;2023-07-28T05:26:35;2.60;;;1.60;;
76814;SDS011;65768;49.906;19.384;2023-07-28T05:29:04;2.50;;;1.40;;
76814;SDS011;65768;49.906;19.384;2023-07-28T05:31:34;2.50;;;1.50;;
76814;SDS011;65768;49.906;19.384;2023-07-28T05:34:03;3.60;;;1.70;;
76814;SDS011;65768;49.906;19.384;2023-07-28T05:36:32;3.30;;;1.60;;
76814;SDS011;65768;49.906;19.384;2023-07-28T05:39:02;3.10;;;1.40;;
76814;SDS011;65768;49.906;19.384;2023-07-28T05:41:32;3.10;;;1.40;;
76814;SDS011;65768;49.906;19.384;2023-07-28T05:44:02;2.70;;;1.40;;
76814;SDS011;65768;49.906;19.384;2023-07-28T05:46:32;2.90;;;1.70;;
76814;SDS011;65768;49.906;19.384;2023-07-28T05:49:01;3.40;;;1.50;;
76814;SDS011;65768;49.906;19.384;2023-07-28T05:51:30;2.50;;;1.40;;
76814;SDS011;65768;49.906;19.384;2023-07-28T05:54:00;3.30;;;2.00;;
76814;SDS011;65768;49.906;19.384;2023-07-28T05:56:30;3.00;;;1.60;;
76814;SDS011;65768;49.906;19.384;2023-07-28T05:58:58;3.70;;;1.60;;
76814;SDS011;65768;49.906;19.384;2023-07-28T06:01:27;2.80;;;0.90;;
76814;SDS011;65768;49.906;19.384;2023-07-28T06:03:57;2.60;;;1.40;;
76814;SDS011;65768;49.906;19.384;2023-07-28T06:06:28;3.00;;;1.50;;
76814;SDS011;65768;49.906;19.384;2023-07-28T06:08:57;3.00;;;2.10;;
76814;SDS011;65768;49.906;19.384;2023-07-28T06:11:26;2.80;;;1.30;;
76814;SDS011;65768;49.906;19.384;2023-07-28T06:13:58;2.60;;;1.30;;
76814;SDS011;65768;49.906;19.384;2023-07-28T06:16:28;2.50;;;1.40;;
76814;SDS011;65768;49.906;19.384;2023-07-28T06:18:57;3.80;;;1.40;;
76814;SDS011;65768;49.906;19.384;2023-07-28T06:21:27;2.50;;;1.80;;
76814;SDS011;65768;49.906;19.384;2023-07-28T06:23:56;3.20;;;1.30;;
76814;SDS011;65768;49.906;19.384;2023-07-28T06:26:25;2.30;;;1.30;;
76814;SDS011;65768;49.906;19.384;2023-07-28T06:28:55;1.70;;;1.20;;
76814;SDS011;65768;49.906;19.384;2023-07-28T06:31:24;2.80;;;1.20;;
76814;SDS011;65768;49.906;19.384;2023-07-28T06:33:54;2.70;;;1.80;;
76814;SDS011;65768;49.906;19.384;2023-07-28T06:36:23;3.40;;;1.50;;
76814;SDS011;65768;49.906;19.384;2023-07-28T06:38:52;2.70;;;1.60;;
76814;SDS011;65768;49.906;19.384;2023-07-28T06:41:24;2.50;;;1.50;;
76814;SDS011;65768;49.906;19.384;2023-07-28T06:43:53;2.30;;;1.40;;
76814;SDS011;65768;49.906;19.384;2023-07-28T06:46:26;3.10;;;1.40;;
76814;SDS011;65768;49.906;19.384;2023-07-28T06:48:56;1.70;;;1.10;;
76814;SDS011;65768;49.906;19.384;2023-07-28T06:51:25;2.10;;;1.30;;
76814;SDS011;65768;49.906;19.384;2023-07-28T06:53:54;3.40;;;1.80;;
76814;SDS011;65768;49.906;19.384;2023-07-28T06:56:27;2.60;;;1.50;;
76814;SDS011;65768;49.906;19.384;2023-07-28T06:58:56;2.20;;;1.30;;
76814;SDS011;65768;49.906;19.384;2023-07-28T07:01:25;1.90;;;1.20;;
76814;SDS011;65768;49.906;19.384;2023-07-28T07:03:53;4.00;;;1.90;;
76814;SDS011;65768;49.906;19.384;2023-07-28T07:06:22;2.90;;;1.40;;
76814;SDS011;65768;49.906;19.384;2023-07-28T07:08:52;3.30;;;1.50;;
76814;SDS011;65768;49.906;19.384;2023-07-28T07:11:22;2.10;;;1.30;;
76814;SDS011;65768;49.906;19.384;2023-07-28T07:13:52;2.40;;;1.60;;
76814;SDS011;65768;49.906;19.384;2023-07-28T07:16:23;3.20;;;1.60;;
76814;SDS011;65768;49.906;19.384;2023-07-28T07:18:52;2.20;;;1.20;;
76814;SDS011;65768;49.906;19.384;2023-07-28T07:21:22;3.20;;;1.40;;
76814;SDS011;65768;49.906;19.384;2023-07-28T07:23:54;2.50;;;1.30;;
76814;SDS011;65768;49.906;19.384;2023-07-28T07:26:25;3.20;;;1.50;;
76814;SDS011;65768;49.906;19.384;2023-07-28T07:28:59;2.90;;;1.60;;
76814;SDS011;65768;49.906;19.384;2023-07-28T07:31:28;2.10;;;1.20;;
76814;SDS011;65768;49.906;19.384;2023-07-28T07:33:58;4.80;;;1.50;;
76814;SDS011;65768;49.906;19.384;2023-07-28T07:36:30;2.30;;;1.50;;
76814;SDS011;65768;49.906;19.384;2023-07-28T07:39:04;4.60;;;1.50;;
76814;SDS011;65768;49.906;19.384;2023-07-28T07:41:34;4.30;;;1.90;;
76814;SDS011;65768;49.906;19.384;2023-07-28T07:44:06;3.60;;;1.40;;
76814;SDS011;65768;49.906;19.384;2023-07-28T07:46:35;3.70;;;1.60;;
76814;SDS011;65768;49.906;19.384;2023-07-28T07:49:04;2.10;;;1.10;;
76814;SDS011;65768;49.906;19.384;2023-07-28T07:51:35;2.10;;;1.00;;
76814;SDS011;65768;49.906;19.384;2023-07-28T07:54:04;1.70;;;1.10;;
76814;SDS011;65768;49.906;19.384;2023-07-28T07:56:33;2.10;;;1.10;;
76814;SDS011;65768;49.906;19.384;2023-07-28T07:59:03;2.20;;;1.10;;
76814;SDS011;65768;49.906;19.384;2023-07-28T08:01:32;2.20;;;1.20;;
76814;SDS011;65768;49.906;19.384;2023-07-28T08:04:01;2.40;;;1.20;;
76814;SDS011;65768;49.906;19.384;2023-07-28T08:06:30;2.80;;;1.20;;
76814;SDS011;65768;49.906;19.384;2023-07-28T08:09:01;1.90;;;1.20;;
76814;SDS011;65768;49.906;19.384;2023-07-28T08:11:31;4.00;;;1.40;;
76814;SDS011;65768;49.906;19.384;2023-07-28T08:14:00;2.00;;;1.10;;
76814;SDS011;65768;49.906;19.384;2023-07-28T08:16:30;2.60;;;1.40;;
76814;SDS011;65768;49.906;19.384;2023-07-28T08:18:59;2.30;;;1.30;;
76814;SDS011;65768;49.906;19.384;2023-07-28T08:21:28;1.90;;;0.90;;
76814;SDS011;65768;49.906;19.384;2023-07-28T08:23:59;2.50;;;1.30;;
76814;SDS011;65768;49.906;19.384;2023-07-28T08:26:29;2.50;;;1.50;;
76814;SDS011;65768;49.906;19.384;2023-07-28T08:28:59;2.10;;;1.10;;
76814;SDS011;65768;49.906;19.384;2023-07-28T08:31:29;2.90;;;1.60;;
76814;SDS011;65768;49.906;19.384;2023-07-28T08:33:59;4.90;;;1.80;;
76814;SDS011;65768;49.906;19.384;2023-07-28T08:36:29;5.60;;;2.30;;
76814;SDS011;65768;49.906;19.384;2023-07-28T08:38:59;2.80;;;1.40;;
76814;SDS011;65768;49.906;19.384;2023-07-28T08:41:29;3.50;;;1.90;;
76814;SDS011;65768;49.906;19.384;2023-07-28T08:43:58;2.50;;;1.70;;
76814;SDS011;65768;49.906;19.384;2023-07-28T08:46:28;3.10;;;1.70;;
76814;SDS011;65768;49.906;19.384;2023-07-28T08:48:58;2.50;;;1.70;;
76814;SDS011;65768;49.906;19.384;2023-07-28T08:51:26;4.10;;;1.50;;
76814;SDS011;65768;49.906;19.384;2023-07-28T08:53:55;2.20;;;1.50;;
76814;SDS011;65768;49.906;19.384;2023-07-28T08:56:24;3.50;;;1.50;;
76814;SDS011;65768;49.906;19.384;2023-07-28T08:58:59;2.30;;;1.40;;
76814;SDS011;65768;49.906;19.384;2023-07-28T09:01:29;3.20;;;1.60;;
76814;SDS011;65768;49.906;19.384;2023-07-28T09:04:02;2.40;;;1.50;;
76814;SDS011;65768;49.906;19.384;2023-07-28T09:06:40;2.60;;;1.40;;
76814;SDS011;65768;49.906;19.384;2023-07-28T09:09:15;2.90;;;1.10;;
76814;SDS011;65768;49.906;19.384;2023-07-28T09:11:49;2.30;;;1.40;;
76814;SDS011;65768;49.906;19.384;2023-07-28T09:14:23;3.40;;;1.60;;
76814;SDS011;65768;49.906;19.384;2023-07-28T09:16:55;2.00;;;1.10;;
76814;SDS011;65768;49.906;19.384;2023-07-28T09:19:34;1.70;;;1.10;;
76814;SDS011;65768;49.906;19.384;2023-07-28T09:22:17;2.20;;;1.20;;
76814;SDS011;65768;49.906;19.384;2023-07-28T09:24:47;2.70;;;1.50;;
76814;SDS011;65768;49.906;19.384;2023-07-28T09:27:20;2.10;;;1.30;;
76814;SDS011;65768;49.906;19.384;2023-07-28T09:29:53;2.90;;;1.30;;
76814;SDS011;65768;49.906;19.384;2023-07-28T09:32:27;2.40;;;1.20;;
76814;SDS011;65768;49.906;19.384;2023-07-28T09:35:12;4.90;;;1.60;;
76814;SDS011;65768;49.906;19.384;2023-07-28T09:37:49;2.60;;;1.70;;
76814;SDS011;65768;49.906;19.384;2023-07-28T09:40:22;3.60;;;1.80;;
76814;SDS011;65768;49.906;19.384;2023-07-28T09:42:51;2.50;;;1.50;;
76814;SDS011;65768;49.906;19.384;2023-07-28T09:45:24;2.10;;;1.20;;
76814;SDS011;65768;49.906;19.384;2023-07-28T09:47:55;2.90;;;1.30;;
76814;SDS011;65768;49.906;19.384;2023-07-28T09:50:27;2.10;;;1.30;;
76814;SDS011;65768;49.906;19.384;2023-07-28T09:53:02;2.40;;;1.40;;
76814;SDS011;65768;49.906;19.384;2023-07-28T09:55:32;2.30;;;1.20;;
76814;SDS011;65768;49.906;19.384;2023-07-28T09:58:04;2.30;;;1.30;;
76814;SDS011;65768;49.906;19.384;2023-07-28T10:00:38;2.40;;;1.00;;
76814;SDS011;65768;49.906;19.384;2023-07-28T10:03:08;2.00;;;1.10;;
76814;SDS011;65768;49.906;19.384;2023-07-28T10:05:39;2.70;;;1.20;;
76814;SDS011;65768;49.906;19.384;2023-07-28T10:08:08;2.20;;;0.80;;
76814;SDS011;65768;49.906;19.384;2023-07-28T10:10:39;4.00;;;0.90;;
76814;SDS011;65768;49.906;19.384;2023-07-28T10:13:19;1.00;;;0.50;;
76814;SDS011;65768;49.906;19.384;2023-07-28T10:15:51;1.60;;;0.90;;
76814;SDS011;65768;49.906;19.384;2023-07-28T10:18:21;1.60;;;1.10;;
76814;SDS011;65768;49.906;19.384;2023-07-28T10:20:51;1.50;;;0.80;;
76814;SDS011;65768;49.906;19.384;2023-07-28T10:23:20;2.70;;;0.70;;
76814;SDS011;65768;49.906;19.384;2023-07-28T10:25:57;1.70;;;0.80;;
76814;SDS011;65768;49.906;19.384;2023-07-28T10:28:34;1.00;;;0.60;;
76814;SDS011;65768;49.906;19.384;2023-07-28T10:31:10;1.30;;;0.70;;
76814;SDS011;65768;49.906;19.384;2023-07-28T10:33:40;1.20;;;0.60;;
76814;SDS011;65768;49.906;19.384;2023-07-28T10:36:13;2.10;;;0.50;;
76814;SDS011;65768;49.906;19.384;2023-07-28T10:38:45;1.20;;;0.50;;
76814;SDS011;65768;49.906;19.384;2023-07-28T10:41:17;1.00;;;0.50;;
76814;SDS011;65768;49.906;19.384;2023-07-28T10:43:47;1.50;;;0.50;;
76814;SDS011;65768;49.906;19.384;2023-07-28T10:46:18;2.60;;;0.60;;
76814;SDS011;65768;49.906;19.384;2023-07-28T10:51:37;1.00;;;0.50;;
76814;SDS011;65768;49.906;19.384;2023-07-28T10:54:07;1.40;;;0.50;;
76814;SDS011;65768;49.906;19.384;2023-07-28T10:56:36;0.90;;;0.40;;
76814;SDS011;65768;49.906;19.384;2023-07-28T10:59:07;1.20;;;0.40;;
76814;SDS011;65768;49.906;19.384;2023-07-28T11:01:40;1.30;;;0.60;;
76814;SDS011;65768;49.906;19.384;2023-07-28T11:04:17;1.20;;;0.50;;
76814;SDS011;65768;49.906;19.384;2023-07-28T11:06:48;2.30;;;0.40;;
76814;SDS011;65768;49.906;19.384;2023-07-28T11:09:19;1.00;;;0.40;;
76814;SDS011;65768;49.906;19.384;2023-07-28T11:11:53;1.90;;;0.40;;
76814;SDS011;65768;49.906;19.384;2023-07-28T11:14:22;0.80;;;0.40;;
76814;SDS011;65768;49.906;19.384;2023-07-28T11:16:52;1.00;;;0.40;;
76814;SDS011;65768;49.906;19.384;2023-07-28T11:19:21;1.20;;;0.40;;
76814;SDS011;65768;49.906;19.384;2023-07-28T11:21:54;1.00;;;0.60;;
76814;SDS011;65768;49.906;19.384;2023-07-28T11:24:23;0.90;;;0.40;;
76814;SDS011;65768;49.906;19.384;2023-07-28T11:26:54;1.10;;;0.60;;
76814;SDS011;65768;49.906;19.384;2023-07-28T11:29:28;1.30;;;0.60;;
76814;SDS011;65768;49.906;19.384;2023-07-28T11:31:57;0.90;;;0.40;;
76814;SDS011;65768;49.906;19.384;2023-07-28T11:34:27;1.00;;;0.60;;
76814;SDS011;65768;49.906;19.384;2023-07-28T11:36:56;1.10;;;0.40;;
76814;SDS011;65768;49.906;19.384;2023-07-28T11:39:27;1.50;;;0.40;;
76814;SDS011;65768;49.906;19.384;2023-07-28T11:41:57;0.80;;;0.50;;
76814;SDS011;65768;49.906;19.384;2023-07-28T11:44:27;1.10;;;0.50;;
76814;SDS011;65768;49.906;19.384;2023-07-28T11:46:57;0.70;;;0.40;;
76814;SDS011;65768;49.906;19.384;2023-07-28T11:49:26;1.70;;;0.50;;
76814;SDS011;65768;49.906;19.384;2023-07-28T11:51:55;0.90;;;0.40;;
76814;SDS011;65768;49.906;19.384;2023-07-28T11:54:27;1.10;;;0.50;;
76814;SDS011;65768;49.906;19.384;2023-07-28T11:57:00;0.70;;;0.30;;
76814;SDS011;65768;49.906;19.384;2023-07-28T11:59:28;1.10;;;0.40;;
76814;SDS011;65768;49.906;19.384;2023-07-28T12:02:01;0.60;;;0.30;;
76814;SDS011;65768;49.906;19.384;2023-07-28T12:04:37;0.50;;;0.30;;
76814;SDS011;65768;49.906;19.384;2023-07-28T12:12:23;0.50;;;0.30;;
76814;SDS011;65768;49.906;19.384;2023-07-28T12:14:52;1.10;;;0.20;;
76814;SDS011;65768;49.906;19.384;2023-07-28T12:17:22;1.00;;;0.20;;
76814;SDS011;65768;49.906;19.384;2023-07-28T12:22:30;0.90;;;0.40;;
76814;SDS011;65768;49.906;19.384;2023-07-28T12:24:58;2.40;;;1.30;;
76814;SDS011;65768;49.906;19.384;2023-07-28T12:27:28;1.40;;;0.60;;
76814;SDS011;65768;49.906;19.384;2023-07-28T12:29:57;0.60;;;0.20;;
76814;SDS011;65768;49.906;19.384;2023-07-28T12:32:27;2.50;;;0.70;;
76814;SDS011;65768;49.906;19.384;2023-07-28T12:34:55;2.40;;;0.50;;
76814;SDS011;65768;49.906;19.384;2023-07-28T12:37:24;0.90;;;0.20;;
76814;SDS011;65768;49.906;19.384;2023-07-28T12:39:53;0.90;;;0.40;;
76814;SDS011;65768;49.906;19.384;2023-07-28T12:42:23;0.90;;;0.30;;
76814;SDS011;65768;49.906;19.384;2023-07-28T12:44:52;1.10;;;0.40;;
76814;SDS011;65768;49.906;19.384;2023-07-28T12:47:21;0.90;;;0.40;;
76814;SDS011;65768;49.906;19.384;2023-07-28T12:49:50;1.30;;;0.50;;
76814;SDS011;65768;49.906;19.384;2023-07-28T12:52:19;1.00;;;0.40;;
76814;SDS011;65768;49.906;19.384;2023-07-28T12:54:48;0.40;;;0.10;;
76814;SDS011;65768;49.906;19.384;2023-07-28T12:57:17;1.10;;;0.40;;
76814;SDS011;65768;49.906;19.384;2023-07-28T12:59:46;0.80;;;0.40;;
76814;SDS011;65768;49.906;19.384;2023-07-28T13:02:16;0.40;;;0.20;;
76814;SDS011;65768;49.906;19.384;2023-07-28T13:04:45;0.80;;;0.30;;
76814;SDS011;65768;49.906;19.384;2023-07-28T13:07:14;0.80;;;0.40;;
76814;SDS011;65768;49.906;19.384;2023-07-28T13:09:43;0.90;;;0.20;;
76814;SDS011;65768;49.906;19.384;2023-07-28T13:12:11;1.10;;;0.40;;
76814;SDS011;65768;49.906;19.384;2023-07-28T13:14:40;1.40;;;0.50;;
76814;SDS011;65768;49.906;19.384;2023-07-28T13:17:09;0.50;;;0.20;;
76814;SDS011;65768;49.906;19.384;2023-07-28T13:19:39;0.60;;;0.20;;
76814;SDS011;65768;49.906;19.384;2023-07-28T13:22:08;1.50;;;0.50;;
76814;SDS011;65768;49.906;19.384;2023-07-28T13:24:37;0.70;;;0.30;;
76814;SDS011;65768;49.906;19.384;2023-07-28T13:27:06;0.50;;;0.20;;
76814;SDS011;65768;49.906;19.384;2023-07-28T13:29:36;1.40;;;0.70;;
76814;SDS011;65768;49.906;19.384;2023-07-28T13:32:15;1.00;;;0.40;;
76814;SDS011;65768;49.906;19.384;2023-07-28T13:34:51;1.00;;;0.60;;
76814;SDS011;65768;49.906;19.384;2023-07-28T13:37:23;1.90;;;0.70;;
76814;SDS011;65768;49.906;19.384;2023-07-28T13:39:52;1.60;;;0.50;;
76814;SDS011;65768;49.906;19.384;2023-07-28T13:42:21;1.30;;;0.60;;
76814;SDS011;65768;49.906;19.384;2023-07-28T13:44:50;1.90;;;0.60;;
76814;SDS011;65768;49.906;19.384;2023-07-28T13:47:19;1.20;;;0.70;;
76814;SDS011;65768;49.906;19.384;2023-07-28T13:49:48;0.50;;;0.30;;
76814;SDS011;65768;49.906;19.384;2023-07-28T13:52:18;1.60;;;0.70;;
76814;SDS011;65768;49.906;19.384;2023-07-28T13:54:46;2.00;;;0.70;;
76814;SDS011;65768;49.906;19.384;2023-07-28T13:57:17;2.70;;;0.70;;
76814;SDS011;65768;49.906;19.384;2023-07-28T13:59:47;2.40;;;0.70;;
76814;SDS011;65768;49.906;19.384;2023-07-28T14:02:16;1.10;;;0.60;;
76814;SDS011;65768;49.906;19.384;2023-07-28T14:04:46;2.80;;;0.60;;
76814;SDS011;65768;49.906;19.384;2023-07-28T14:07:15;2.50;;;0.70;;
76814;SDS011;65768;49.906;19.384;2023-07-28T14:09:45;1.70;;;0.70;;
76814;SDS011;65768;49.906;19.384;2023-07-28T14:12:14;1.40;;;0.60;;
76814;SDS011;65768;49.906;19.384;2023-07-28T14:14:43;1.70;;;0.70;;
76814;SDS011;65768;49.906;19.384;2023-07-28T14:17:12;1.10;;;0.40;;
76814;SDS011;65768;49.906;19.384;2023-07-28T14:19:41;2.00;;;0.80;;
76814;SDS011;65768;49.906;19.384;2023-07-28T14:22:10;1.50;;;0.70;;
76814;SDS011;65768;49.906;19.384;2023-07-28T14:24:39;2.00;;;0.90;;
76814;SDS011;65768;49.906;19.384;2023-07-28T14:27:08;1.40;;;0.50;;
76814;SDS011;65768;49.906;19.384;2023-07-28T14:29:36;1.10;;;0.60;;
76814;SDS011;65768;49.906;19.384;2023-07-28T14:32:05;1.50;;;0.80;;
76814;SDS011;65768;49.906;19.384;2023-07-28T14:34:34;0.90;;;0.40;;
76814;SDS011;65768;49.906;19.384;2023-07-28T14:37:03;1.40;;;0.60;;
76814;SDS011;65768;49.906;19.384;2023-07-28T14:39:36;0.90;;;0.40;;
76814;SDS011;65768;49.906;19.384;2023-07-28T14:42:05;0.90;;;0.40;;
76814;SDS011;65768;49.906;19.384;2023-07-28T14:44:34;1.00;;;0.50;;
76814;SDS011;65768;49.906;19.384;2023-07-28T14:47:02;2.90;;;0.60;;
76814;SDS011;65768;49.906;19.384;2023-07-28T14:49:31;1.00;;;0.50;;
76814;SDS011;65768;49.906;19.384;2023-07-28T14:51:59;0.90;;;0.50;;
76814;SDS011;65768;49.906;19.384;2023-07-28T14:54:28;0.80;;;0.50;;
76814;SDS011;65768;49.906;19.384;2023-07-28T14:56:56;0.80;;;0.50;;
76814;SDS011;65768;49.906;19.384;2023-07-28T14:59:27;1.50;;;0.70;;
76814;SDS011;65768;49.906;19.384;2023-07-28T15:01:55;1.30;;;0.60;;
76814;SDS011;65768;49.906;19.384;2023-07-28T15:04:23;1.90;;;0.90;;
76814;SDS011;65768;49.906;19.384;2023-07-28T15:06:52;1.60;;;0.60;;